sensor_id;sensor_type;location;lat;lon;timestamp;P1;durP1;ratioP1;P2;durP2;ratioP2
11418;SDS011;32800;44.876;13.880;2023-11-21T00:01:16;2.00;;;1.80;;
11418;SDS011;32800;44.876;13.880;2023-11-21T00:03:42;2.07;;;1.70;;
11418;SDS011;32800;44.876;13.880;2023-11-21T00:06:08;2.15;;;1.95;;
11418;SDS011;32800;44.876;13.880;2023-11-21T00:08:36;3.17;;;2.03;;
11418;SDS011;32800;44.876;13.880;2023-11-21T00:11:02;2.40;;;2.20;;
11418;SDS011;32800;44.876;13.880;2023-11-21T00:13:30;2.27;;;2.00;;
11418;SDS011;32800;44.876;13.880;2023-11-21T00:15:56;2.25;;;2.00;;
11418;SDS011;32800;44.876;13.880;2023-11-21T00:18:22;2.90;;;2.20;;
11418;SDS011;32800;44.876;13.880;2023-11-21T00:20:47;3.83;;;1.90;;
11418;SDS011;32800;44.876;13.880;2023-11-21T00:23:13;2.30;;;1.87;;
11418;SDS011;32800;44.876;13.880;2023-11-21T00:25:38;2.77;;;2.00;;
11418;SDS011;32800;44.876;13.880;2023-11-21T00:28:05;3.10;;;2.38;;
11418;SDS011;32800;44.876;13.880;2023-11-21T00:30:31;2.10;;;1.90;;
11418;SDS011;32800;44.876;13.880;2023-11-21T00:32:57;3.58;;;2.15;;
11418;SDS011;32800;44.876;13.880;2023-11-21T00:35:22;2.38;;;1.90;;
11418;SDS011;32800;44.876;13.880;2023-11-21T00:37:48;2.80;;;2.27;;
11418;SDS011;32800;44.876;13.880;2023-11-21T00:40:14;2.23;;;2.03;;
11418;SDS011;32800;44.876;13.880;2023-11-21T00:42:40;2.20;;;1.93;;
11418;SDS011;32800;44.876;13.880;2023-11-21T00:45:07;2.20;;;2.00;;
11418;SDS011;32800;44.876;13.880;2023-11-21T00:47:33;3.15;;;2.28;;
11418;SDS011;32800;44.876;13.880;2023-11-21T00:49:58;2.17;;;1.98;;
11418;SDS011;32800;44.876;13.880;2023-11-21T00:52:24;2.42;;;1.98;;
11418;SDS011;32800;44.876;13.880;2023-11-21T00:54:50;2.37;;;2.00;;
11418;SDS011;32800;44.876;13.880;2023-11-21T00:57:16;3.23;;;1.80;;
11418;SDS011;32800;44.876;13.880;2023-11-21T00:59:41;2.23;;;2.03;;
11418;SDS011;32800;44.876;13.880;2023-11-21T01:02:07;3.20;;;1.83;;
11418;SDS011;32800;44.876;13.880;2023-11-21T01:04:35;1.98;;;1.88;;
11418;SDS011;32800;44.876;13.880;2023-11-21T01:07:00;2.43;;;2.07;;
11418;SDS011;32800;44.876;13.880;2023-11-21T01:09:26;2.42;;;1.95;;
11418;SDS011;32800;44.876;13.880;2023-11-21T01:11:53;2.15;;;1.95;;
11418;SDS011;32800;44.876;13.880;2023-11-21T01:14:18;2.72;;;1.98;;
11418;SDS011;32800;44.876;13.880;2023-11-21T01:16:44;1.88;;;1.77;;
11418;SDS011;32800;44.876;13.880;2023-11-21T01:19:09;2.57;;;2.33;;
11418;SDS011;32800;44.876;13.880;2023-11-21T01:21:35;3.00;;;2.40;;
11418;SDS011;32800;44.876;13.880;2023-11-21T01:24:00;2.00;;;1.80;;
11418;SDS011;32800;44.876;13.880;2023-11-21T01:26:27;2.13;;;1.73;;
11418;SDS011;32800;44.876;13.880;2023-11-21T01:28:53;2.57;;;2.30;;
11418;SDS011;32800;44.876;13.880;2023-11-21T01:31:19;3.77;;;2.10;;
11418;SDS011;32800;44.876;13.880;2023-11-21T01:33:45;2.10;;;1.90;;
11418;SDS011;32800;44.876;13.880;2023-11-21T01:36:11;1.80;;;1.70;;
11418;SDS011;32800;44.876;13.880;2023-11-21T01:38:37;2.40;;;2.20;;
11418;SDS011;32800;44.876;13.880;2023-11-21T01:41:02;2.60;;;1.90;;
11418;SDS011;32800;44.876;13.880;2023-11-21T01:43:28;2.80;;;2.40;;
11418;SDS011;32800;44.876;13.880;2023-11-21T01:45:56;2.10;;;1.90;;
11418;SDS011;32800;44.876;13.880;2023-11-21T01:48:23;2.70;;;2.10;;
11418;SDS011;32800;44.876;13.880;2023-11-21T01:50:49;2.15;;;1.92;;
11418;SDS011;32800;44.876;13.880;2023-11-21T01:53:15;2.37;;;1.93;;
11418;SDS011;32800;44.876;13.880;2023-11-21T01:55:41;2.17;;;1.97;;
11418;SDS011;32800;44.876;13.880;2023-11-21T01:58:07;2.25;;;2.00;;
11418;SDS011;32800;44.876;13.880;2023-11-21T02:00:34;2.33;;;2.10;;
11418;SDS011;32800;44.876;13.880;2023-11-21T02:02:59;2.43;;;2.00;;
11418;SDS011;32800;44.876;13.880;2023-11-21T02:05:25;2.87;;;2.00;;
11418;SDS011;32800;44.876;13.880;2023-11-21T02:07:51;2.00;;;1.80;;
11418;SDS011;32800;44.876;13.880;2023-11-21T02:10:17;2.83;;;2.40;;
11418;SDS011;32800;44.876;13.880;2023-11-21T02:12:47;2.30;;;1.80;;
11418;SDS011;32800;44.876;13.880;2023-11-21T02:15:16;2.80;;;2.00;;
11418;SDS011;32800;44.876;13.880;2023-11-21T02:17:48;2.43;;;2.03;;
11418;SDS011;32800;44.876;13.880;2023-11-21T02:20:18;2.30;;;1.87;;
11418;SDS011;32800;44.876;13.880;2023-11-21T02:22:50;2.60;;;2.20;;
11418;SDS011;32800;44.876;13.880;2023-11-21T02:25:29;2.10;;;1.90;;
11418;SDS011;32800;44.876;13.880;2023-11-21T02:27:57;2.50;;;2.20;;
11418;SDS011;32800;44.876;13.880;2023-11-21T02:30:24;2.23;;;2.03;;
11418;SDS011;32800;44.876;13.880;2023-11-21T02:32:58;2.60;;;2.13;;
11418;SDS011;32800;44.876;13.880;2023-11-21T02:35:24;2.67;;;2.40;;
11418;SDS011;32800;44.876;13.880;2023-11-21T02:37:54;2.30;;;2.03;;
11418;SDS011;32800;44.876;13.880;2023-11-21T02:40:19;2.30;;;2.10;;
11418;SDS011;32800;44.876;13.880;2023-11-21T02:42:46;2.90;;;2.00;;
11418;SDS011;32800;44.876;13.880;2023-11-21T02:45:13;2.40;;;1.90;;
11418;SDS011;32800;44.876;13.880;2023-11-21T02:47:41;2.17;;;1.97;;
11418;SDS011;32800;44.876;13.880;2023-11-21T02:50:08;3.23;;;1.80;;
11418;SDS011;32800;44.876;13.880;2023-11-21T02:52:34;1.90;;;1.70;;
11418;SDS011;32800;44.876;13.880;2023-11-21T02:55:00;3.10;;;2.03;;
11418;SDS011;32800;44.876;13.880;2023-11-21T02:57:29;2.20;;;2.00;;
11418;SDS011;32800;44.876;13.880;2023-11-21T02:59:55;1.67;;;1.57;;
11418;SDS011;32800;44.876;13.880;2023-11-21T03:02:20;1.87;;;1.73;;
11418;SDS011;32800;44.876;13.880;2023-11-21T03:04:47;2.13;;;1.93;;
11418;SDS011;32800;44.876;13.880;2023-11-21T03:07:14;4.37;;;2.20;;
11418;SDS011;32800;44.876;13.880;2023-11-21T03:09:40;2.37;;;2.17;;
11418;SDS011;32800;44.876;13.880;2023-11-21T03:12:05;2.28;;;2.08;;
11418;SDS011;32800;44.876;13.880;2023-11-21T03:14:31;2.60;;;2.13;;
11418;SDS011;32800;44.876;13.880;2023-11-21T03:16:56;2.63;;;2.03;;
11418;SDS011;32800;44.876;13.880;2023-11-21T03:19:22;2.17;;;2.00;;
11418;SDS011;32800;44.876;13.880;2023-11-21T03:21:48;1.93;;;1.83;;
11418;SDS011;32800;44.876;13.880;2023-11-21T03:24:14;2.40;;;2.07;;
11418;SDS011;32800;44.876;13.880;2023-11-21T03:26:44;2.20;;;2.00;;
11418;SDS011;32800;44.876;13.880;2023-11-21T03:29:09;1.90;;;1.73;;
11418;SDS011;32800;44.876;13.880;2023-11-21T03:31:35;2.10;;;1.83;;
11418;SDS011;32800;44.876;13.880;2023-11-21T03:34:01;2.20;;;2.00;;
11418;SDS011;32800;44.876;13.880;2023-11-21T03:36:26;2.63;;;1.93;;
11418;SDS011;32800;44.876;13.880;2023-11-21T03:38:52;2.20;;;2.00;;
11418;SDS011;32800;44.876;13.880;2023-11-21T03:41:18;1.77;;;1.67;;
11418;SDS011;32800;44.876;13.880;2023-11-21T03:43:43;2.10;;;1.90;;
11418;SDS011;32800;44.876;13.880;2023-11-21T03:46:09;1.88;;;1.75;;
11418;SDS011;32800;44.876;13.880;2023-11-21T03:48:35;2.50;;;2.10;;
11418;SDS011;32800;44.876;13.880;2023-11-21T03:51:00;2.53;;;2.03;;
11418;SDS011;32800;44.876;13.880;2023-11-21T03:53:26;2.10;;;1.90;;
11418;SDS011;32800;44.876;13.880;2023-11-21T03:55:51;1.77;;;1.67;;
11418;SDS011;32800;44.876;13.880;2023-11-21T03:58:17;2.33;;;2.00;;
11418;SDS011;32800;44.876;13.880;2023-11-21T04:00:43;2.10;;;1.90;;
11418;SDS011;32800;44.876;13.880;2023-11-21T04:03:08;2.22;;;1.80;;
11418;SDS011;32800;44.876;13.880;2023-11-21T04:05:34;2.17;;;1.80;;
11418;SDS011;32800;44.876;13.880;2023-11-21T04:07:59;2.27;;;2.07;;
11418;SDS011;32800;44.876;13.880;2023-11-21T04:10:25;1.98;;;1.75;;
11418;SDS011;32800;44.876;13.880;2023-11-21T04:12:50;1.90;;;1.80;;
11418;SDS011;32800;44.876;13.880;2023-11-21T04:15:16;2.27;;;2.07;;
11418;SDS011;32800;44.876;13.880;2023-11-21T04:17:42;2.47;;;1.93;;
11418;SDS011;32800;44.876;13.880;2023-11-21T04:20:08;2.33;;;1.70;;
11418;SDS011;32800;44.876;13.880;2023-11-21T04:22:41;2.20;;;2.00;;
11418;SDS011;32800;44.876;13.880;2023-11-21T04:25:13;1.93;;;1.70;;
11418;SDS011;32800;44.876;13.880;2023-11-21T04:27:40;2.10;;;1.90;;
11418;SDS011;32800;44.876;13.880;2023-11-21T04:30:08;1.73;;;1.63;;
11418;SDS011;32800;44.876;13.880;2023-11-21T04:32:35;1.80;;;1.70;;
11418;SDS011;32800;44.876;13.880;2023-11-21T04:35:00;2.75;;;2.20;;
11418;SDS011;32800;44.876;13.880;2023-11-21T04:37:26;1.70;;;1.60;;
11418;SDS011;32800;44.876;13.880;2023-11-21T04:39:52;2.30;;;1.90;;
11418;SDS011;32800;44.876;13.880;2023-11-21T04:42:17;2.00;;;1.90;;
11418;SDS011;32800;44.876;13.880;2023-11-21T04:44:43;1.97;;;1.60;;
11418;SDS011;32800;44.876;13.880;2023-11-21T04:47:09;3.77;;;1.97;;
11418;SDS011;32800;44.876;13.880;2023-11-21T04:49:35;1.83;;;1.67;;
11418;SDS011;32800;44.876;13.880;2023-11-21T04:52:00;2.27;;;1.97;;
11418;SDS011;32800;44.876;13.880;2023-11-21T04:54:26;2.20;;;2.00;;
11418;SDS011;32800;44.876;13.880;2023-11-21T04:56:52;1.80;;;1.70;;
11418;SDS011;32800;44.876;13.880;2023-11-21T04:59:18;2.10;;;1.90;;
11418;SDS011;32800;44.876;13.880;2023-11-21T05:01:43;2.17;;;1.80;;
11418;SDS011;32800;44.876;13.880;2023-11-21T05:04:09;2.10;;;1.90;;
11418;SDS011;32800;44.876;13.880;2023-11-21T05:06:34;2.05;;;1.52;;
11418;SDS011;32800;44.876;13.880;2023-11-21T05:09:00;2.03;;;1.83;;
11418;SDS011;32800;44.876;13.880;2023-11-21T05:11:29;2.03;;;1.83;;
11418;SDS011;32800;44.876;13.880;2023-11-21T05:13:55;1.90;;;1.70;;
11418;SDS011;32800;44.876;13.880;2023-11-21T05:16:21;2.40;;;2.00;;
11418;SDS011;32800;44.876;13.880;2023-11-21T05:18:47;2.00;;;1.80;;
11418;SDS011;32800;44.876;13.880;2023-11-21T05:21:15;2.60;;;2.10;;
11418;SDS011;32800;44.876;13.880;2023-11-21T05:23:41;2.27;;;2.17;;
11418;SDS011;32800;44.876;13.880;2023-11-21T05:26:06;1.77;;;1.67;;
11418;SDS011;32800;44.876;13.880;2023-11-21T05:28:32;2.33;;;1.80;;
11418;SDS011;32800;44.876;13.880;2023-11-21T05:30:58;1.83;;;1.70;;
11418;SDS011;32800;44.876;13.880;2023-11-21T05:33:23;1.73;;;1.63;;
11418;SDS011;32800;44.876;13.880;2023-11-21T05:35:50;1.90;;;1.70;;
11418;SDS011;32800;44.876;13.880;2023-11-21T05:38:15;2.20;;;1.80;;
11418;SDS011;32800;44.876;13.880;2023-11-21T05:40:41;1.60;;;1.40;;
11418;SDS011;32800;44.876;13.880;2023-11-21T05:43:06;3.10;;;1.70;;
11418;SDS011;32800;44.876;13.880;2023-11-21T05:45:32;1.60;;;1.50;;
11418;SDS011;32800;44.876;13.880;2023-11-21T05:47:58;3.53;;;1.67;;
11418;SDS011;32800;44.876;13.880;2023-11-21T05:50:23;2.13;;;1.90;;
11418;SDS011;32800;44.876;13.880;2023-11-21T05:52:49;3.23;;;1.80;;
11418;SDS011;32800;44.876;13.880;2023-11-21T05:55:15;1.73;;;1.63;;
11418;SDS011;32800;44.876;13.880;2023-11-21T05:57:41;2.70;;;2.00;;
11418;SDS011;32800;44.876;13.880;2023-11-21T06:00:09;2.20;;;1.90;;
11418;SDS011;32800;44.876;13.880;2023-11-21T06:02:39;1.87;;;1.77;;
11418;SDS011;32800;44.876;13.880;2023-11-21T06:05:09;2.47;;;2.10;;
11418;SDS011;32800;44.876;13.880;2023-11-21T06:07:35;2.00;;;1.80;;
11418;SDS011;32800;44.876;13.880;2023-11-21T06:10:04;2.10;;;1.90;;
11418;SDS011;32800;44.876;13.880;2023-11-21T06:12:37;2.17;;;1.80;;
11418;SDS011;32800;44.876;13.880;2023-11-21T06:15:05;2.57;;;1.93;;
11418;SDS011;32800;44.876;13.880;2023-11-21T06:17:33;2.57;;;1.80;;
11418;SDS011;32800;44.876;13.880;2023-11-21T06:20:02;2.80;;;2.03;;
11418;SDS011;32800;44.876;13.880;2023-11-21T06:22:34;2.17;;;1.97;;
11418;SDS011;32800;44.876;13.880;2023-11-21T06:25:02;1.93;;;1.80;;
11418;SDS011;32800;44.876;13.880;2023-11-21T06:27:33;1.80;;;1.70;;
11418;SDS011;32800;44.876;13.880;2023-11-21T06:30:01;2.20;;;1.70;;
11418;SDS011;32800;44.876;13.880;2023-11-21T06:32:27;1.80;;;1.70;;
11418;SDS011;32800;44.876;13.880;2023-11-21T06:34:55;2.30;;;1.83;;
11418;SDS011;32800;44.876;13.880;2023-11-21T06:37:26;1.93;;;1.80;;
11418;SDS011;32800;44.876;13.880;2023-11-21T06:39:52;2.43;;;1.83;;
11418;SDS011;32800;44.876;13.880;2023-11-21T06:42:18;1.80;;;1.70;;
11418;SDS011;32800;44.876;13.880;2023-11-21T06:44:45;2.53;;;2.13;;
11418;SDS011;32800;44.876;13.880;2023-11-21T06:47:11;2.37;;;1.60;;
11418;SDS011;32800;44.876;13.880;2023-11-21T06:49:36;2.50;;;1.63;;
11418;SDS011;32800;44.876;13.880;2023-11-21T06:52:03;1.93;;;1.83;;
11418;SDS011;32800;44.876;13.880;2023-11-21T06:54:30;1.92;;;1.80;;
11418;SDS011;32800;44.876;13.880;2023-11-21T06:56:56;2.20;;;1.87;;
11418;SDS011;32800;44.876;13.880;2023-11-21T06:59:22;2.37;;;1.83;;
11418;SDS011;32800;44.876;13.880;2023-11-21T07:01:48;2.10;;;1.90;;
11418;SDS011;32800;44.876;13.880;2023-11-21T07:04:14;1.80;;;1.70;;
11418;SDS011;32800;44.876;13.880;2023-11-21T07:06:40;2.07;;;1.87;;
11418;SDS011;32800;44.876;13.880;2023-11-21T07:09:06;1.83;;;1.73;;
11418;SDS011;32800;44.876;13.880;2023-11-21T07:11:33;2.47;;;1.97;;
11418;SDS011;32800;44.876;13.880;2023-11-21T07:13:59;2.07;;;1.87;;
11418;SDS011;32800;44.876;13.880;2023-11-21T07:16:27;1.90;;;1.80;;
11418;SDS011;32800;44.876;13.880;2023-11-21T07:18:55;1.50;;;1.40;;
11418;SDS011;32800;44.876;13.880;2023-11-21T07:21:22;2.00;;;1.80;;
11418;SDS011;32800;44.876;13.880;2023-11-21T07:23:48;2.47;;;2.03;;
11418;SDS011;32800;44.876;13.880;2023-11-21T07:26:13;1.67;;;1.57;;
11418;SDS011;32800;44.876;13.880;2023-11-21T07:28:39;1.70;;;1.60;;
11418;SDS011;32800;44.876;13.880;2023-11-21T07:31:05;2.23;;;2.03;;
11418;SDS011;32800;44.876;13.880;2023-11-21T07:33:30;3.00;;;1.77;;
11418;SDS011;32800;44.876;13.880;2023-11-21T07:35:56;1.80;;;1.70;;
11418;SDS011;32800;44.876;13.880;2023-11-21T07:38:21;2.03;;;1.63;;
11418;SDS011;32800;44.876;13.880;2023-11-21T07:40:47;2.33;;;1.73;;
11418;SDS011;32800;44.876;13.880;2023-11-21T07:43:18;2.07;;;1.87;;
11418;SDS011;32800;44.876;13.880;2023-11-21T07:45:44;2.33;;;1.77;;
11418;SDS011;32800;44.876;13.880;2023-11-21T07:48:10;2.50;;;1.90;;
11418;SDS011;32800;44.876;13.880;2023-11-21T07:50:36;1.90;;;1.80;;
11418;SDS011;32800;44.876;13.880;2023-11-21T07:53:02;1.83;;;1.73;;
11418;SDS011;32800;44.876;13.880;2023-11-21T07:55:30;2.33;;;1.87;;
11418;SDS011;32800;44.876;13.880;2023-11-21T07:57:58;1.90;;;1.70;;
11418;SDS011;32800;44.876;13.880;2023-11-21T08:00:24;3.00;;;1.80;;
11418;SDS011;32800;44.876;13.880;2023-11-21T08:02:50;2.03;;;1.80;;
11418;SDS011;32800;44.876;13.880;2023-11-21T08:05:15;1.93;;;1.73;;
11418;SDS011;32800;44.876;13.880;2023-11-21T08:07:41;2.17;;;1.93;;
11418;SDS011;32800;44.876;13.880;2023-11-21T08:10:07;1.90;;;1.80;;
11418;SDS011;32800;44.876;13.880;2023-11-21T08:12:35;2.20;;;2.00;;
11418;SDS011;32800;44.876;13.880;2023-11-21T08:15:04;1.83;;;1.67;;
11418;SDS011;32800;44.876;13.880;2023-11-21T08:17:30;2.83;;;1.87;;
11418;SDS011;32800;44.876;13.880;2023-11-21T08:19:58;2.10;;;1.90;;
11418;SDS011;32800;44.876;13.880;2023-11-21T08:22:23;2.70;;;2.30;;
11418;SDS011;32800;44.876;13.880;2023-11-21T08:24:50;5.57;;;3.20;;
11418;SDS011;32800;44.876;13.880;2023-11-21T08:27:24;5.70;;;3.60;;
11418;SDS011;32800;44.876;13.880;2023-11-21T08:29:50;3.90;;;3.50;;
11418;SDS011;32800;44.876;13.880;2023-11-21T08:32:17;6.37;;;4.57;;
11418;SDS011;32800;44.876;13.880;2023-11-21T08:34:43;7.47;;;5.60;;
11418;SDS011;32800;44.876;13.880;2023-11-21T08:37:09;5.67;;;4.83;;
11418;SDS011;32800;44.876;13.880;2023-11-21T08:39:36;7.03;;;5.10;;
11418;SDS011;32800;44.876;13.880;2023-11-21T08:42:03;5.77;;;4.20;;
11418;SDS011;32800;44.876;13.880;2023-11-21T08:44:29;6.33;;;4.13;;
11418;SDS011;32800;44.876;13.880;2023-11-21T08:46:55;6.67;;;4.30;;
11418;SDS011;32800;44.876;13.880;2023-11-21T08:49:21;6.77;;;4.50;;
11418;SDS011;32800;44.876;13.880;2023-11-21T08:51:46;6.00;;;4.03;;
11418;SDS011;32800;44.876;13.880;2023-11-21T08:54:12;6.03;;;3.70;;
11418;SDS011;32800;44.876;13.880;2023-11-21T08:56:37;5.63;;;3.40;;
11418;SDS011;32800;44.876;13.880;2023-11-21T08:59:03;5.67;;;3.83;;
11418;SDS011;32800;44.876;13.880;2023-11-21T09:01:29;6.10;;;3.63;;
11418;SDS011;32800;44.876;13.880;2023-11-21T09:03:57;5.13;;;3.23;;
11418;SDS011;32800;44.876;13.880;2023-11-21T09:06:23;4.93;;;3.20;;
11418;SDS011;32800;44.876;13.880;2023-11-21T09:08:49;3.90;;;2.47;;
11418;SDS011;32800;44.876;13.880;2023-11-21T09:11:15;5.97;;;3.00;;
11418;SDS011;32800;44.876;13.880;2023-11-21T09:13:40;4.67;;;2.27;;
11418;SDS011;32800;44.876;13.880;2023-11-21T09:16:06;4.13;;;2.70;;
11418;SDS011;32800;44.876;13.880;2023-11-21T09:18:32;5.23;;;2.57;;
11418;SDS011;32800;44.876;13.880;2023-11-21T09:20:57;5.73;;;2.47;;
11418;SDS011;32800;44.876;13.880;2023-11-21T09:23:23;3.87;;;2.30;;
11418;SDS011;32800;44.876;13.880;2023-11-21T09:25:49;5.27;;;2.20;;
11418;SDS011;32800;44.876;13.880;2023-11-21T09:28:17;6.37;;;2.33;;
11418;SDS011;32800;44.876;13.880;2023-11-21T09:30:43;3.50;;;1.90;;
11418;SDS011;32800;44.876;13.880;2023-11-21T09:33:09;4.50;;;1.90;;
11418;SDS011;32800;44.876;13.880;2023-11-21T09:35:38;3.87;;;1.70;;
11418;SDS011;32800;44.876;13.880;2023-11-21T09:38:04;3.50;;;1.43;;
11418;SDS011;32800;44.876;13.880;2023-11-21T09:40:36;5.17;;;1.80;;
11418;SDS011;32800;44.876;13.880;2023-11-21T09:43:08;5.60;;;1.70;;
11418;SDS011;32800;44.876;13.880;2023-11-21T09:45:41;2.80;;;1.73;;
11418;SDS011;32800;44.876;13.880;2023-11-21T09:48:12;3.73;;;1.60;;
11418;SDS011;32800;44.876;13.880;2023-11-21T09:50:39;1.90;;;1.50;;
11418;SDS011;32800;44.876;13.880;2023-11-21T09:53:13;2.37;;;1.40;;
11418;SDS011;32800;44.876;13.880;2023-11-21T09:55:49;2.43;;;1.47;;
11418;SDS011;32800;44.876;13.880;2023-11-21T09:58:16;2.53;;;1.70;;
11418;SDS011;32800;44.876;13.880;2023-11-21T10:00:43;3.83;;;1.63;;
11418;SDS011;32800;44.876;13.880;2023-11-21T10:03:10;3.67;;;1.87;;
11418;SDS011;32800;44.876;13.880;2023-11-21T10:05:36;2.63;;;1.50;;
11418;SDS011;32800;44.876;13.880;2023-11-21T10:08:09;3.90;;;1.73;;
11418;SDS011;32800;44.876;13.880;2023-11-21T10:10:39;6.67;;;1.73;;
11418;SDS011;32800;44.876;13.880;2023-11-21T10:13:11;2.30;;;1.47;;
11418;SDS011;32800;44.876;13.880;2023-11-21T10:15:37;3.30;;;2.00;;
11418;SDS011;32800;44.876;13.880;2023-11-21T10:18:03;6.47;;;2.20;;
11418;SDS011;32800;44.876;13.880;2023-11-21T10:20:31;3.97;;;2.20;;
11418;SDS011;32800;44.876;13.880;2023-11-21T10:22:58;3.20;;;2.10;;
11418;SDS011;32800;44.876;13.880;2023-11-21T10:25:26;3.90;;;2.10;;
11418;SDS011;32800;44.876;13.880;2023-11-21T10:27:55;2.93;;;1.77;;
11418;SDS011;32800;44.876;13.880;2023-11-21T10:30:23;6.80;;;1.90;;
11418;SDS011;32800;44.876;13.880;2023-11-21T10:32:58;2.73;;;1.60;;
11418;SDS011;32800;44.876;13.880;2023-11-21T10:35:25;1.97;;;1.60;;
11418;SDS011;32800;44.876;13.880;2023-11-21T10:38:19;3.87;;;2.00;;
11418;SDS011;32800;44.876;13.880;2023-11-21T10:40:47;3.00;;;1.77;;
11418;SDS011;32800;44.876;13.880;2023-11-21T10:43:14;4.80;;;1.70;;
11418;SDS011;32800;44.876;13.880;2023-11-21T10:45:43;3.97;;;1.50;;
11418;SDS011;32800;44.876;13.880;2023-11-21T10:48:09;2.77;;;1.53;;
11418;SDS011;32800;44.876;13.880;2023-11-21T10:50:36;8.63;;;1.93;;
11418;SDS011;32800;44.876;13.880;2023-11-21T10:53:02;6.40;;;1.60;;
11418;SDS011;32800;44.876;13.880;2023-11-21T10:55:32;2.47;;;1.40;;
11418;SDS011;32800;44.876;13.880;2023-11-21T10:57:58;2.40;;;1.47;;
11418;SDS011;32800;44.876;13.880;2023-11-21T11:00:26;2.83;;;1.40;;
11418;SDS011;32800;44.876;13.880;2023-11-21T11:02:52;2.10;;;1.50;;
11418;SDS011;32800;44.876;13.880;2023-11-21T11:05:22;2.50;;;1.60;;
11418;SDS011;32800;44.876;13.880;2023-11-21T11:07:52;1.83;;;1.43;;
11418;SDS011;32800;44.876;13.880;2023-11-21T11:10:26;1.73;;;1.37;;
11418;SDS011;32800;44.876;13.880;2023-11-21T11:12:54;2.47;;;1.60;;
11418;SDS011;32800;44.876;13.880;2023-11-21T11:15:20;2.03;;;1.27;;
11418;SDS011;32800;44.876;13.880;2023-11-21T11:17:46;2.57;;;1.60;;
11418;SDS011;32800;44.876;13.880;2023-11-21T11:20:14;2.90;;;1.67;;
11418;SDS011;32800;44.876;13.880;2023-11-21T11:22:50;2.57;;;2.03;;
11418;SDS011;32800;44.876;13.880;2023-11-21T11:36:55;1.80;;;1.40;;
11418;SDS011;32800;44.876;13.880;2023-11-21T11:39:35;2.20;;;1.23;;
11418;SDS011;32800;44.876;13.880;2023-11-21T11:42:03;3.30;;;1.60;;
11418;SDS011;32800;44.876;13.880;2023-11-21T11:47:14;2.33;;;1.40;;
11418;SDS011;32800;44.876;13.880;2023-11-21T11:52:48;2.23;;;1.40;;
11418;SDS011;32800;44.876;13.880;2023-11-21T11:55:16;1.97;;;1.40;;
11418;SDS011;32800;44.876;13.880;2023-11-21T11:57:49;2.43;;;1.70;;
11418;SDS011;32800;44.876;13.880;2023-11-21T12:02:46;2.07;;;1.43;;
11418;SDS011;32800;44.876;13.880;2023-11-21T12:05:14;1.70;;;1.40;;
11418;SDS011;32800;44.876;13.880;2023-11-21T12:07:41;3.00;;;1.40;;
11418;SDS011;32800;44.876;13.880;2023-11-21T12:10:10;1.63;;;1.23;;
11418;SDS011;32800;44.876;13.880;2023-11-21T12:12:49;4.00;;;1.40;;
11418;SDS011;32800;44.876;13.880;2023-11-21T12:15:17;1.50;;;1.40;;
11418;SDS011;32800;44.876;13.880;2023-11-21T12:17:44;3.23;;;1.60;;
11418;SDS011;32800;44.876;13.880;2023-11-21T12:20:10;1.63;;;1.30;;
11418;SDS011;32800;44.876;13.880;2023-11-21T12:22:43;2.00;;;1.40;;
11418;SDS011;32800;44.876;13.880;2023-11-21T12:25:09;1.40;;;1.20;;
11418;SDS011;32800;44.876;13.880;2023-11-21T12:27:37;1.70;;;1.20;;
11418;SDS011;32800;44.876;13.880;2023-11-21T12:30:03;2.17;;;1.30;;
11418;SDS011;32800;44.876;13.880;2023-11-21T12:32:29;1.80;;;1.40;;
11418;SDS011;32800;44.876;13.880;2023-11-21T12:34:55;2.03;;;1.40;;
11418;SDS011;32800;44.876;13.880;2023-11-21T12:37:20;1.30;;;1.20;;
11418;SDS011;32800;44.876;13.880;2023-11-21T12:39:47;2.20;;;1.27;;
11418;SDS011;32800;44.876;13.880;2023-11-21T12:42:12;1.70;;;1.20;;
11418;SDS011;32800;44.876;13.880;2023-11-21T12:44:38;2.13;;;1.20;;
11418;SDS011;32800;44.876;13.880;2023-11-21T12:47:06;1.27;;;1.10;;
11418;SDS011;32800;44.876;13.880;2023-11-21T12:49:31;1.77;;;1.30;;
11418;SDS011;32800;44.876;13.880;2023-11-21T12:51:59;1.73;;;1.30;;
11418;SDS011;32800;44.876;13.880;2023-11-21T12:54:24;1.57;;;1.17;;
11418;SDS011;32800;44.876;13.880;2023-11-21T12:56:50;1.53;;;1.20;;
11418;SDS011;32800;44.876;13.880;2023-11-21T12:59:15;2.97;;;1.20;;
11418;SDS011;32800;44.876;13.880;2023-11-21T13:01:43;2.40;;;1.00;;
11418;SDS011;32800;44.876;13.880;2023-11-21T13:04:08;1.23;;;1.13;;
11418;SDS011;32800;44.876;13.880;2023-11-21T13:06:35;1.53;;;1.20;;
11418;SDS011;32800;44.876;13.880;2023-11-21T13:09:06;1.57;;;1.30;;
11418;SDS011;32800;44.876;13.880;2023-11-21T13:11:36;1.97;;;1.40;;
11418;SDS011;32800;44.876;13.880;2023-11-21T13:14:02;1.53;;;1.23;;
11418;SDS011;32800;44.876;13.880;2023-11-21T13:16:28;2.63;;;1.30;;
11418;SDS011;32800;44.876;13.880;2023-11-21T13:18:55;1.77;;;1.40;;
11418;SDS011;32800;44.876;13.880;2023-11-21T13:21:21;1.87;;;1.37;;
11418;SDS011;32800;44.876;13.880;2023-11-21T13:23:47;1.77;;;1.33;;
11418;SDS011;32800;44.876;13.880;2023-11-21T13:26:15;1.70;;;1.60;;
11418;SDS011;32800;44.876;13.880;2023-11-21T13:28:41;3.90;;;2.73;;
11418;SDS011;32800;44.876;13.880;2023-11-21T13:31:11;2.33;;;2.10;;
11418;SDS011;32800;44.876;13.880;2023-11-21T13:33:46;4.23;;;2.40;;
11418;SDS011;32800;44.876;13.880;2023-11-21T13:36:20;2.87;;;2.40;;
11418;SDS011;32800;44.876;13.880;2023-11-21T13:38:49;3.83;;;2.10;;
11418;SDS011;32800;44.876;13.880;2023-11-21T13:41:15;2.10;;;1.90;;
11418;SDS011;32800;44.876;13.880;2023-11-21T13:43:43;5.07;;;2.43;;
11418;SDS011;32800;44.876;13.880;2023-11-21T13:46:13;2.20;;;2.00;;
11418;SDS011;32800;44.876;13.880;2023-11-21T13:48:42;4.03;;;2.07;;
11418;SDS011;32800;44.876;13.880;2023-11-21T13:51:12;3.53;;;1.53;;
11418;SDS011;32800;44.876;13.880;2023-11-21T13:53:45;3.53;;;1.60;;
11418;SDS011;32800;44.876;13.880;2023-11-21T13:56:14;5.97;;;1.87;;
11418;SDS011;32800;44.876;13.880;2023-11-21T13:58:44;3.13;;;1.70;;
11418;SDS011;32800;44.876;13.880;2023-11-21T14:01:12;3.07;;;1.60;;
11418;SDS011;32800;44.876;13.880;2023-11-21T14:04:03;4.23;;;3.73;;
11418;SDS011;32800;44.876;13.880;2023-11-21T14:06:50;3.33;;;2.90;;
11418;SDS011;32800;44.876;13.880;2023-11-21T14:09:19;4.83;;;2.63;;
11418;SDS011;32800;44.876;13.880;2023-11-21T14:11:54;4.83;;;2.80;;
11418;SDS011;32800;44.876;13.880;2023-11-21T14:14:22;3.27;;;2.03;;
11418;SDS011;32800;44.876;13.880;2023-11-21T14:16:50;4.50;;;2.63;;
11418;SDS011;32800;44.876;13.880;2023-11-21T14:19:16;4.30;;;2.80;;
11418;SDS011;32800;44.876;13.880;2023-11-21T14:21:46;3.50;;;2.70;;
11418;SDS011;32800;44.876;13.880;2023-11-21T14:24:11;3.63;;;2.20;;
11418;SDS011;32800;44.876;13.880;2023-11-21T14:26:41;5.20;;;2.73;;
11418;SDS011;32800;44.876;13.880;2023-11-21T14:29:08;2.47;;;1.90;;
11418;SDS011;32800;44.876;13.880;2023-11-21T14:31:34;2.67;;;2.37;;
11418;SDS011;32800;44.876;13.880;2023-11-21T14:34:00;3.43;;;1.87;;
11418;SDS011;32800;44.876;13.880;2023-11-21T14:36:31;2.60;;;2.00;;
11418;SDS011;32800;44.876;13.880;2023-11-21T14:38:56;2.97;;;2.43;;
11418;SDS011;32800;44.876;13.880;2023-11-21T14:41:22;2.97;;;2.40;;
11418;SDS011;32800;44.876;13.880;2023-11-21T14:43:50;2.00;;;1.80;;
11418;SDS011;32800;44.876;13.880;2023-11-21T14:46:16;5.07;;;1.93;;
11418;SDS011;32800;44.876;13.880;2023-11-21T14:48:44;3.83;;;2.00;;
11418;SDS011;32800;44.876;13.880;2023-11-21T14:51:21;2.33;;;1.90;;
11418;SDS011;32800;44.876;13.880;2023-11-21T14:53:58;2.23;;;1.90;;